createdAt,value
2019-02-05T00:00:35.259Z,12.05
2019-02-05T00:03:02.180Z,12.25
2019-02-05T00:05:29.083Z,9.85
2019-02-05T00:07:56.002Z,11.65
2019-02-05T00:10:22.802Z,12.55
2019-02-05T00:12:49.623Z,12.28
2019-02-05T00:15:16.434Z,11.20
2019-02-05T00:17:43.232Z,9.88
2019-02-05T00:20:10.247Z,11.75
2019-02-05T00:22:37.051Z,12.30
2019-02-05T00:25:04.564Z,12.80
2019-02-05T00:27:31.380Z,11.75
2019-02-05T00:29:58.183Z,14.68
2019-02-05T00:32:24.979Z,13.32
2019-02-05T00:34:51.682Z,13.75
2019-02-05T00:37:19.091Z,12.95
2019-02-05T00:39:45.795Z,12.18
2019-02-05T00:42:12.495Z,12.30
2019-02-05T00:44:39.202Z,13.08
2019-02-05T00:47:05.898Z,14.68
2019-02-05T00:49:32.604Z,14.30
2019-02-05T00:51:59.319Z,12.88
2019-02-05T00:54:26.339Z,13.40
2019-02-05T00:56:53.035Z,13.32
2019-02-05T00:59:20.146Z,13.80
2019-02-05T01:01:46.850Z,12.70
2019-02-05T01:04:13.852Z,11.20
2019-02-05T01:06:40.760Z,15.58
2019-02-05T01:09:08.903Z,13.38
2019-02-05T01:11:36.091Z,13.50
2019-02-05T01:14:03.811Z,15.98
2019-02-05T01:16:30.526Z,14.35
2019-02-05T01:18:57.223Z,15.30
2019-02-05T01:21:23.927Z,12.55
2019-02-05T01:23:50.624Z,13.75
2019-02-05T01:26:28.705Z,15.30
2019-02-05T01:28:45.939Z,14.23
2019-02-05T01:31:13.440Z,12.03
2019-02-05T01:33:40.160Z,14.10
2019-02-05T01:36:06.952Z,14.70
2019-02-05T01:38:33.654Z,15.32
2019-02-05T01:41:00.559Z,14.40
2019-02-05T01:43:27.343Z,12.73
2019-02-05T01:45:54.047Z,12.58
2019-02-05T01:48:20.839Z,14.80
2019-02-05T01:50:47.547Z,13.38
2019-02-05T01:53:14.253Z,13.78
2019-02-05T01:55:41.155Z,13.88
2019-02-05T01:58:08.136Z,17.42
2019-02-05T02:00:37.682Z,13.13
2019-02-05T02:03:05.143Z,15.72
2019-02-05T02:05:31.947Z,12.30
2019-02-05T02:07:59.150Z,15.30
2019-02-05T02:10:27.932Z,14.47
2019-02-05T02:12:54.936Z,13.20
2019-02-05T02:15:21.932Z,15.20
2019-02-05T02:17:48.730Z,12.65
2019-02-05T02:20:16.707Z,15.18
2019-02-05T02:22:44.394Z,14.45
2019-02-05T02:25:12.575Z,14.73
2019-02-05T02:27:39.479Z,14.23
2019-02-05T02:30:16.187Z,15.35
2019-02-05T02:32:42.999Z,15.23
2019-02-05T02:35:09.913Z,14.65
2019-02-05T02:37:36.622Z,17.50
2019-02-05T02:40:03.736Z,16.25
2019-02-05T02:42:30.450Z,15.03
2019-02-05T02:44:57.151Z,15.18
2019-02-05T02:47:23.871Z,18.02
2019-02-05T02:49:50.579Z,14.90
2019-02-05T02:52:17.373Z,13.48
2019-02-05T02:54:44.080Z,17.10
2019-02-05T02:57:10.790Z,16.35
2019-02-05T02:59:38.095Z,15.63
2019-02-05T03:02:05.011Z,15.72
2019-02-05T03:04:31.822Z,15.83
2019-02-05T03:06:58.528Z,15.95
2019-02-05T03:09:25.253Z,16.45
2019-02-05T03:11:52.043Z,16.73
2019-02-05T03:14:18.756Z,17.40
2019-02-05T03:16:45.470Z,16.67
2019-02-05T03:19:12.163Z,18.15
2019-02-05T03:21:39.584Z,17.48
2019-02-05T03:24:06.287Z,18.70
2019-02-05T03:26:32.995Z,18.95
2019-02-05T03:28:59.702Z,15.10
2019-02-05T03:31:26.408Z,16.15
2019-02-05T03:33:53.122Z,18.98
2019-02-05T03:36:19.832Z,15.45
2019-02-05T03:38:46.543Z,17.82
2019-02-05T03:41:13.373Z,19.40
2019-02-05T03:43:40.686Z,18.25
2019-02-05T03:46:12.515Z,18.95
2019-02-05T03:48:41.679Z,20.05
2019-02-05T03:51:53.180Z,21.57
2019-02-05T03:54:37.216Z,20.00
2019-02-05T03:57:16.187Z,17.77
2019-02-05T04:00:19.475Z,19.77
2019-02-05T04:02:58.583Z,20.50
2019-02-05T04:05:58.693Z,19.57
2019-02-05T04:09:04.343Z,21.77
2019-02-05T04:12:01.585Z,21.10
2019-02-05T04:14:47.184Z,22.77
2019-02-05T04:17:59.248Z,25.05
2019-02-05T04:20:59.527Z,20.97
2019-02-05T04:23:58.115Z,21.50
2019-02-05T04:27:15.240Z,23.62
2019-02-05T04:30:24.525Z,22.30
2019-02-05T04:33:16.357Z,19.17
2019-02-05T04:36:17.039Z,23.07
2019-02-05T04:39:07.396Z,23.60
2019-02-05T04:41:48.003Z,23.40
2019-02-05T04:44:55.027Z,21.40
2019-02-05T04:48:06.776Z,23.60
2019-02-05T04:51:03.625Z,22.17
2019-02-05T04:53:44.723Z,24.85
2019-02-05T04:56:31.234Z,23.38
2019-02-05T04:59:43.139Z,27.80
2019-02-05T05:02:34.011Z,25.08
2019-02-05T05:05:32.818Z,25.35
2019-02-05T05:08:21.462Z,27.05
2019-02-05T05:10:48.180Z,21.12
2019-02-05T05:13:14.980Z,26.45
2019-02-05T05:15:41.878Z,29.30
2019-02-05T05:18:09.223Z,23.57
2019-02-05T05:20:36.141Z,23.42
2019-02-05T05:23:02.953Z,26.50
2019-02-05T05:25:30.659Z,26.93
2019-02-05T05:28:09.717Z,24.20
2019-02-05T05:30:28.950Z,29.05
2019-02-05T05:32:55.771Z,25.20
2019-02-05T05:35:22.679Z,25.50
2019-02-05T05:37:49.791Z,24.43
2019-02-05T05:40:16.588Z,29.05
2019-02-05T05:42:43.307Z,26.62
2019-02-05T05:45:12.436Z,29.32
2019-02-05T05:47:39.387Z,24.43
2019-02-05T05:50:08.862Z,27.02
2019-02-05T05:52:35.580Z,27.15
2019-02-05T05:55:02.769Z,26.85
2019-02-05T05:57:29.696Z,24.00
2019-02-05T05:59:56.403Z,27.95
2019-02-05T06:02:23.222Z,25.57
2019-02-05T06:04:49.926Z,25.57
2019-02-05T06:07:16.634Z,28.92
2019-02-05T06:09:43.371Z,27.17
2019-02-05T06:12:10.080Z,27.75
2019-02-05T06:14:36.798Z,28.00
2019-02-05T06:17:04.203Z,25.60
2019-02-05T06:19:30.923Z,27.37
2019-02-05T06:21:57.733Z,30.05
2019-02-05T06:24:24.446Z,23.65
2019-02-05T06:26:51.364Z,28.17
2019-02-05T06:29:18.071Z,26.93
2019-02-05T06:31:44.879Z,29.18
2019-02-05T06:34:11.615Z,29.63
2019-02-05T06:36:39.127Z,24.95
2019-02-05T06:39:07.711Z,26.75
2019-02-05T06:41:34.684Z,22.93
2019-02-05T06:44:01.907Z,26.57
2019-02-05T06:46:28.710Z,28.73
2019-02-05T06:48:55.423Z,26.30
2019-02-05T06:51:22.132Z,28.07
2019-02-05T06:53:48.863Z,27.20
2019-02-05T06:56:16.177Z,31.15
2019-02-05T06:58:46.367Z,26.40
2019-02-05T07:01:11.802Z,28.00
2019-02-05T07:03:38.721Z,30.40
2019-02-05T07:06:05.877Z,26.50
2019-02-05T07:08:32.737Z,25.75
2019-02-05T07:10:59.498Z,29.80
2019-02-05T07:13:26.730Z,28.15
2019-02-05T07:15:53.695Z,29.48
2019-02-05T07:18:20.544Z,30.75
2019-02-05T07:20:47.673Z,27.67
2019-02-05T07:23:14.633Z,33.83
2019-02-05T07:25:41.769Z,29.57
2019-02-05T07:28:08.728Z,28.23
2019-02-05T07:30:35.689Z,27.93
2019-02-05T07:33:02.957Z,29.85
2019-02-05T07:35:29.821Z,30.02
2019-02-05T07:37:57.283Z,30.62
2019-02-05T07:40:24.333Z,29.82
2019-02-05T07:42:51.392Z,29.10
2019-02-05T07:45:20.026Z,26.68
2019-02-05T07:47:47.079Z,31.87
2019-02-05T07:50:16.521Z,33.95
2019-02-05T07:52:43.721Z,32.10
2019-02-05T07:55:10.929Z,28.65
2019-02-05T07:57:37.893Z,28.47
2019-02-05T08:00:09.622Z,28.35
2019-02-05T08:09:56.469Z,33.13
2019-02-05T08:12:23.337Z,33.45
2019-02-05T08:14:50.298Z,31.87
2019-02-05T08:17:17.158Z,31.50
2019-02-05T08:19:44.135Z,36.35
2019-02-05T08:22:11.501Z,32.88
2019-02-05T08:24:38.338Z,32.93
2019-02-05T08:27:05.294Z,32.07
2019-02-05T08:29:32.158Z,30.83
2019-02-05T08:31:59.123Z,36.70
2019-02-05T08:34:26.350Z,29.95
2019-02-05T08:36:53.201Z,36.60
2019-02-05T08:39:20.161Z,36.63
2019-02-05T08:41:47.410Z,31.47
2019-02-05T08:44:14.570Z,39.48
2019-02-05T08:46:41.426Z,39.80
2019-02-05T08:49:08.785Z,35.00
2019-02-05T08:51:35.653Z,33.63
2019-02-05T08:54:02.923Z,35.77
2019-02-05T08:56:29.765Z,39.50
2019-02-05T08:58:56.621Z,40.57
2019-02-05T09:01:23.589Z,36.83
2019-02-05T09:03:50.554Z,38.40
2019-02-05T09:06:17.418Z,42.87
2019-02-05T09:08:44.369Z,42.97
2019-02-05T09:11:11.421Z,40.87
2019-02-05T09:13:38.292Z,44.23
2019-02-05T09:16:05.142Z,40.13
2019-02-05T09:18:32.107Z,44.37
2019-02-05T09:20:58.945Z,42.40
2019-02-05T09:23:25.801Z,41.40
2019-02-05T09:25:53.161Z,44.13
2019-02-05T09:28:20.022Z,47.43
2019-02-05T09:30:46.972Z,50.73
2019-02-05T09:33:14.258Z,48.77
2019-02-05T09:35:41.658Z,48.87
2019-02-05T09:38:08.709Z,50.00
2019-02-05T09:40:35.677Z,44.37
2019-02-05T09:43:03.017Z,49.83
2019-02-05T09:45:30.562Z,49.17
2019-02-05T09:47:58.373Z,46.13
2019-02-05T09:50:25.433Z,53.27
2019-02-05T09:52:52.384Z,51.40
2019-02-05T09:55:19.454Z,45.53
2019-02-05T09:57:46.522Z,46.87
2019-02-05T10:00:19.770Z,48.07
2019-02-05T10:02:46.721Z,44.30
2019-02-05T10:05:16.321Z,47.53
2019-02-05T10:07:43.277Z,50.50
2019-02-05T10:10:11.941Z,49.83
2019-02-05T10:12:38.902Z,51.43
2019-02-05T10:15:09.321Z,52.27
2019-02-05T10:17:36.277Z,53.63
2019-02-05T10:20:04.821Z,52.33
2019-02-05T10:22:31.897Z,55.13
2019-02-05T10:24:59.173Z,56.83
2019-02-05T10:27:26.041Z,47.17
2019-02-05T10:29:59.278Z,45.90
2019-02-05T10:32:21.554Z,50.17
2019-02-05T10:34:48.410Z,54.87
2019-02-05T10:37:15.369Z,42.23
2019-02-05T10:39:42.313Z,39.30
2019-02-05T10:42:09.377Z,42.97
2019-02-05T10:44:36.639Z,37.77
2019-02-05T10:47:03.799Z,45.37
2019-02-05T10:49:30.677Z,41.03
2019-02-05T10:51:57.529Z,38.77
2019-02-05T10:54:24.384Z,41.43
2019-02-05T10:56:51.233Z,38.73
2019-02-05T10:59:18.109Z,42.43
2019-02-05T11:01:44.965Z,45.33
2019-02-05T11:04:12.147Z,45.37
2019-02-05T11:06:39.013Z,38.47
2019-02-05T11:09:08.445Z,40.60
2019-02-05T11:11:35.969Z,41.70
2019-02-05T11:14:03.225Z,41.27
2019-02-05T11:16:30.189Z,40.53
2019-02-05T11:18:57.033Z,40.23
2019-02-05T11:21:23.904Z,41.80
2019-02-05T11:23:50.847Z,38.37
2019-02-05T11:26:17.713Z,38.43
2019-02-05T11:28:44.625Z,35.63
2019-02-05T11:31:11.575Z,40.37
2019-02-05T11:33:38.529Z,39.93
2019-02-05T11:36:05.482Z,37.60
2019-02-05T11:38:32.359Z,38.97
2019-02-05T11:40:59.321Z,38.07
2019-02-05T11:43:26.163Z,37.70
2019-02-05T11:45:53.721Z,35.17
2019-02-05T11:48:20.776Z,38.13
2019-02-05T11:50:47.633Z,35.30
2019-02-05T11:53:14.483Z,34.43
2019-02-05T11:55:41.577Z,34.73
2019-02-05T11:58:08.702Z,36.93
2019-02-05T12:01:07.222Z,32.97
2019-02-05T12:03:34.077Z,31.80
2019-02-05T12:06:01.047Z,29.77
2019-02-05T12:08:27.997Z,32.43
2019-02-05T12:10:55.197Z,31.97
2019-02-05T12:13:22.281Z,33.90
2019-02-05T12:15:49.237Z,32.27
2019-02-05T12:18:16.286Z,31.87
2019-02-05T12:20:43.542Z,33.80
2019-02-05T12:23:10.509Z,32.93
2019-02-05T12:25:37.353Z,33.97
2019-02-05T12:28:04.415Z,29.40
2019-02-05T12:30:43.845Z,32.93
2019-02-05T12:33:02.048Z,33.87
2019-02-05T12:35:29.162Z,29.07
2019-02-05T12:37:56.244Z,31.33
2019-02-05T12:40:23.608Z,34.43
2019-02-05T12:42:50.584Z,32.10
2019-02-05T12:45:37.398Z,31.00
2019-02-05T17:40:41.221Z,19.50
2019-02-05T17:43:08.177Z,20.77
2019-02-05T17:45:36.815Z,19.05
2019-02-05T17:49:37.942Z,19.67
2019-02-05T17:52:05.093Z,21.43
2019-02-05T17:54:31.849Z,22.70
2019-02-05T17:56:58.745Z,22.53
2019-02-05T17:59:25.518Z,19.87
2019-02-05T18:01:52.375Z,19.60
2019-02-05T18:04:19.224Z,19.20
2019-02-05T18:06:46.681Z,21.95
2019-02-05T18:09:13.548Z,22.80
2019-02-05T18:11:40.335Z,25.17
2019-02-05T18:14:07.533Z,25.67
2019-02-05T18:16:34.393Z,25.83
2019-02-05T18:19:01.153Z,25.63
2019-02-05T18:21:28.213Z,29.60
2019-02-05T18:23:55.341Z,31.77
2019-02-05T18:26:22.177Z,28.90
2019-02-05T18:28:48.952Z,29.00
2019-02-05T18:31:16.013Z,29.33
2019-02-05T18:33:42.885Z,30.57
2019-02-05T18:36:10.137Z,28.87
2019-02-05T18:38:37.253Z,28.15
2019-02-05T18:41:04.225Z,30.17
2019-02-05T18:43:31.739Z,32.15
2019-02-05T18:45:58.629Z,35.03
2019-02-05T18:48:26.924Z,40.30
2019-02-05T18:50:53.954Z,37.85
2019-02-05T18:53:20.934Z,36.65
2019-02-05T18:55:48.137Z,40.12
2019-02-05T18:58:15.001Z,37.63
2019-02-05T19:00:42.712Z,39.73
2019-02-05T19:03:15.610Z,37.80
2019-02-05T19:05:38.633Z,41.95
2019-02-05T19:08:06.211Z,40.10
2019-02-05T19:10:33.281Z,34.78
2019-02-05T19:13:00.452Z,35.33
2019-02-05T19:15:29.250Z,35.95
2019-02-05T19:17:56.114Z,34.58
2019-02-05T19:20:25.110Z,38.20
2019-02-05T19:22:52.071Z,33.88
2019-02-05T19:25:39.461Z,35.08
2019-02-05T19:28:06.919Z,31.27
2019-02-05T19:30:34.744Z,33.88
2019-02-05T19:33:02.256Z,34.70
2019-02-05T19:35:29.109Z,31.80
2019-02-05T19:37:55.957Z,33.20
2019-02-05T19:40:22.814Z,32.40
2019-02-05T19:42:49.677Z,36.25
2019-02-05T19:45:42.771Z,36.15
2019-02-05T19:48:15.335Z,36.25
2019-02-05T19:50:42.282Z,34.45
2019-02-05T19:53:09.582Z,31.77
2019-02-05T19:55:36.456Z,32.03
2019-02-05T19:58:03.849Z,30.07
2019-02-05T20:00:30.698Z,37.53
2019-02-05T20:02:57.554Z,34.70
2019-02-05T20:05:24.503Z,32.33
2019-02-05T20:07:51.758Z,33.10
2019-02-05T20:10:19.130Z,33.90
2019-02-05T20:12:46.093Z,31.67
2019-02-05T20:15:13.557Z,33.53
2019-02-05T20:17:40.753Z,33.40
2019-02-05T20:20:09.855Z,35.40
2019-02-05T20:22:36.726Z,36.77
2019-02-05T20:25:04.738Z,31.37
2019-02-05T20:27:31.509Z,35.28
2019-02-05T20:29:58.381Z,36.08
2019-02-05T20:32:27.960Z,34.05
2019-02-05T20:34:53.922Z,34.98
2019-02-05T20:37:20.677Z,34.40
2019-02-05T20:39:47.447Z,36.33
2019-02-05T20:42:14.481Z,31.70
2019-02-05T20:44:41.472Z,36.48
2019-02-05T20:47:08.325Z,37.13
2019-02-05T20:49:35.421Z,33.78
2019-02-05T20:52:02.299Z,30.82
2019-02-05T20:54:29.264Z,42.45
2019-02-05T20:56:56.137Z,32.78
2019-02-05T20:59:23.256Z,32.55
2019-02-05T21:01:50.457Z,34.78
2019-02-05T21:04:17.434Z,37.58
2019-02-05T21:06:45.197Z,34.70
2019-02-05T21:09:20.654Z,33.98
2019-02-05T21:11:47.525Z,35.15
2019-02-05T21:14:14.494Z,32.88
2019-02-05T21:16:41.482Z,34.78
2019-02-05T21:19:08.432Z,35.60
2019-02-05T21:21:35.305Z,35.63
2019-02-05T21:24:02.077Z,35.35
2019-02-05T21:26:28.933Z,32.45
2019-02-05T21:28:55.830Z,31.42
2019-02-05T21:31:22.610Z,31.90
2019-02-05T21:33:49.471Z,31.42
2019-02-05T21:36:16.225Z,31.48
2019-02-05T21:38:45.387Z,35.52
2019-02-05T21:41:11.970Z,31.60
2019-02-05T21:43:38.733Z,33.02
2019-02-05T21:46:05.685Z,32.85
2019-02-05T21:48:32.433Z,32.78
2019-02-05T21:50:59.549Z,34.00
2019-02-05T21:53:26.504Z,31.07
2019-02-05T21:55:53.353Z,32.78
2019-02-05T21:58:20.221Z,36.68
2019-02-05T22:00:47.209Z,34.58
2019-02-05T22:03:14.437Z,30.17
2019-02-05T22:05:41.593Z,30.88
2019-02-05T22:08:09.039Z,34.43
2019-02-05T22:10:36.028Z,30.30
2019-02-05T22:13:03.773Z,30.20
2019-02-05T22:15:32.130Z,31.50
2019-02-05T22:17:59.404Z,27.45
2019-02-05T22:20:26.324Z,30.77
2019-02-05T22:22:56.039Z,29.90
2019-02-05T22:25:24.169Z,29.77
2019-02-05T22:27:51.021Z,30.25
2019-02-05T22:30:20.104Z,29.10
2019-02-05T22:32:47.064Z,26.42
2019-02-05T22:35:15.353Z,23.52
2019-02-05T22:37:42.617Z,23.35
2019-02-05T22:40:10.181Z,24.52
2019-02-05T22:42:37.046Z,24.15
2019-02-05T22:45:06.341Z,23.35
2019-02-05T22:47:33.213Z,22.40
2019-02-05T22:50:00.333Z,24.35
2019-02-05T22:52:27.144Z,21.02
2019-02-05T22:54:53.993Z,23.77
2019-02-05T22:57:20.862Z,22.10
2019-02-05T22:59:47.705Z,23.10
2019-02-05T23:02:14.786Z,21.07
2019-02-05T23:05:22.582Z,23.25
2019-02-05T23:07:49.841Z,23.57
2019-02-05T23:11:03.173Z,19.75
2019-02-05T23:13:23.923Z,20.55
2019-02-05T23:15:51.769Z,22.35
2019-02-05T23:18:18.725Z,19.48
2019-02-05T23:20:45.629Z,21.15
2019-02-05T23:23:12.567Z,20.32
2019-02-05T23:25:39.275Z,20.57
2019-02-05T23:28:06.300Z,19.90
2019-02-05T23:30:33.199Z,20.82
2019-02-05T23:33:00.113Z,18.70
2019-02-05T23:35:27.416Z,20.37
2019-02-05T23:37:54.319Z,19.85
2019-02-05T23:40:21.107Z,17.50
2019-02-05T23:42:47.819Z,16.93
2019-02-05T23:45:14.711Z,16.27
2019-02-05T23:47:41.424Z,18.40
2019-02-05T23:50:10.651Z,17.17
2019-02-05T23:52:37.735Z,16.82
2019-02-05T23:55:06.559Z,19.48
2019-02-05T23:57:33.258Z,17.07
2019-02-05T23:59:59.966Z,17.65
